sensor_id;sensor_type;location;lat;lon;timestamp;pressure;altitude;pressure_sealevel;temperature;humidity
62103;BME280;48077;48.104;11.702;2023-05-07T00:00:02;95442.44;;;9.19;100.00
62103;BME280;48077;48.104;11.702;2023-05-07T00:07:31;95437.75;;;9.14;100.00
62103;BME280;48077;48.104;11.702;2023-05-07T00:09:55;95454.69;;;9.20;100.00
62103;BME280;48077;48.104;11.702;2023-05-07T00:12:20;95438.00;;;9.13;100.00
62103;BME280;48077;48.104;11.702;2023-05-07T00:14:44;95449.00;;;9.16;100.00
62103;BME280;48077;48.104;11.702;2023-05-07T00:17:08;95454.09;;;9.18;100.00
62103;BME280;48077;48.104;11.702;2023-05-07T00:19:31;95453.63;;;9.21;100.00
62103;BME280;48077;48.104;11.702;2023-05-07T00:21:55;95444.50;;;9.17;100.00
62103;BME280;48077;48.104;11.702;2023-05-07T00:24:19;95435.34;;;9.13;100.00
62103;BME280;48077;48.104;11.702;2023-05-07T00:26:42;95435.34;;;9.13;100.00
62103;BME280;48077;48.104;11.702;2023-05-07T00:29:06;95449.50;;;9.25;100.00
62103;BME280;48077;48.104;11.702;2023-05-07T00:31:29;95430.47;;;9.09;100.00
62103;BME280;48077;48.104;11.702;2023-05-07T00:33:52;95435.56;;;9.11;100.00
62103;BME280;48077;48.104;11.702;2023-05-07T00:36:16;95424.75;;;9.06;100.00
62103;BME280;48077;48.104;11.702;2023-05-07T00:38:39;95451.91;;;9.15;100.00
62103;BME280;48077;48.104;11.702;2023-05-07T00:41:03;95445.75;;;9.14;100.00
62103;BME280;48077;48.104;11.702;2023-05-07T00:43:26;95427.69;;;9.04;100.00
62103;BME280;48077;48.104;11.702;2023-05-07T00:45:51;95444.84;;;9.20;100.00
62103;BME280;48077;48.104;11.702;2023-05-07T00:48:14;95447.66;;;9.25;100.00
62103;BME280;48077;48.104;11.702;2023-05-07T00:50:38;95430.84;;;9.13;100.00
62103;BME280;48077;48.104;11.702;2023-05-07T00:53:01;95428.59;;;9.10;100.00
62103;BME280;48077;48.104;11.702;2023-05-07T00:55:25;95443.09;;;9.14;100.00
62103;BME280;48077;48.104;11.702;2023-05-07T00:57:50;95447.75;;;9.19;100.00
62103;BME280;48077;48.104;11.702;2023-05-07T01:00:14;95438.59;;;9.15;100.00
62103;BME280;48077;48.104;11.702;2023-05-07T01:02:38;95452.50;;;9.17;100.00
62103;BME280;48077;48.104;11.702;2023-05-07T01:05:03;95450.16;;;9.20;100.00
62103;BME280;48077;48.104;11.702;2023-05-07T01:07:29;95450.97;;;9.21;100.00
62103;BME280;48077;48.104;11.702;2023-05-07T01:09:53;95429.28;;;9.05;100.00
62103;BME280;48077;48.104;11.702;2023-05-07T01:12:16;95417.09;;;8.98;100.00
62103;BME280;48077;48.104;11.702;2023-05-07T01:14:40;95428.09;;;9.01;100.00
62103;BME280;48077;48.104;11.702;2023-05-07T01:17:04;95452.25;;;9.18;100.00
62103;BME280;48077;48.104;11.702;2023-05-07T01:19:28;95435.19;;;9.07;100.00
62103;BME280;48077;48.104;11.702;2023-05-07T01:22:01;95454.78;;;9.13;100.00
62103;BME280;48077;48.104;11.702;2023-05-07T01:24:26;95433.06;;;8.98;100.00
62103;BME280;48077;48.104;11.702;2023-05-07T01:26:49;95436.75;;;8.97;100.00
62103;BME280;48077;48.104;11.702;2023-05-07T01:29:12;95420.06;;;8.89;100.00
62103;BME280;48077;48.104;11.702;2023-05-07T01:31:37;95444.28;;;9.00;100.00
62103;BME280;48077;48.104;11.702;2023-05-07T01:34:01;95422.50;;;8.91;100.00
62103;BME280;48077;48.104;11.702;2023-05-07T01:36:27;95427.81;;;8.91;100.00
62103;BME280;48077;48.104;11.702;2023-05-07T01:38:52;95427.16;;;8.96;100.00
62103;BME280;48077;48.104;11.702;2023-05-07T01:41:16;95440.59;;;9.01;100.00
62103;BME280;48077;48.104;11.702;2023-05-07T01:43:41;95419.25;;;8.89;100.00
62103;BME280;48077;48.104;11.702;2023-05-07T01:46:05;95435.50;;;8.99;100.00
62103;BME280;48077;48.104;11.702;2023-05-07T01:48:30;95429.00;;;8.95;100.00
62103;BME280;48077;48.104;11.702;2023-05-07T01:50:55;95422.38;;;8.86;100.00
62103;BME280;48077;48.104;11.702;2023-05-07T01:53:18;95431.53;;;8.90;100.00
62103;BME280;48077;48.104;11.702;2023-05-07T01:55:42;95426.56;;;8.94;100.00
62103;BME280;48077;48.104;11.702;2023-05-07T01:58:07;95420.53;;;8.86;100.00
62103;BME280;48077;48.104;11.702;2023-05-07T02:00:31;95437.19;;;8.94;100.00
62103;BME280;48077;48.104;11.702;2023-05-07T02:02:54;95413.06;;;8.77;100.00
62103;BME280;48077;48.104;11.702;2023-05-07T02:05:18;95430.34;;;8.86;100.00
62103;BME280;48077;48.104;11.702;2023-05-07T02:07:41;95421.41;;;8.80;100.00
62103;BME280;48077;48.104;11.702;2023-05-07T02:10:05;95443.19;;;8.89;100.00
62103;BME280;48077;48.104;11.702;2023-05-07T02:12:29;95446.44;;;8.91;100.00
62103;BME280;48077;48.104;11.702;2023-05-07T02:14:52;95425.03;;;8.86;100.00
62103;BME280;48077;48.104;11.702;2023-05-07T02:17:16;95426.22;;;8.90;100.00
62103;BME280;48077;48.104;11.702;2023-05-07T02:19:39;95436.97;;;8.95;100.00
62103;BME280;48077;48.104;11.702;2023-05-07T02:22:02;95420.81;;;8.78;100.00
62103;BME280;48077;48.104;11.702;2023-05-07T02:24:26;95444.66;;;8.85;100.00
62103;BME280;48077;48.104;11.702;2023-05-07T02:26:49;95416.78;;;8.57;100.00
62103;BME280;48077;48.104;11.702;2023-05-07T02:29:12;95446.44;;;8.73;100.00
62103;BME280;48077;48.104;11.702;2023-05-07T02:31:36;95418.84;;;8.55;100.00
62103;BME280;48077;48.104;11.702;2023-05-07T02:34:00;95435.31;;;8.64;100.00
62103;BME280;48077;48.104;11.702;2023-05-07T02:36:24;95421.13;;;8.51;100.00
62103;BME280;48077;48.104;11.702;2023-05-07T02:38:47;95411.81;;;8.42;100.00
62103;BME280;48077;48.104;11.702;2023-05-07T02:41:10;95424.44;;;8.47;100.00
62103;BME280;48077;48.104;11.702;2023-05-07T02:43:34;95427.63;;;8.56;100.00
62103;BME280;48077;48.104;11.702;2023-05-07T02:46:02;95434.31;;;8.58;100.00
62103;BME280;48077;48.104;11.702;2023-05-07T02:48:25;95424.16;;;8.55;100.00
62103;BME280;48077;48.104;11.702;2023-05-07T02:50:49;95416.94;;;8.44;100.00
62103;BME280;48077;48.104;11.702;2023-05-07T02:53:12;95421.19;;;8.45;100.00
62103;BME280;48077;48.104;11.702;2023-05-07T02:55:38;95423.25;;;8.43;100.00
62103;BME280;48077;48.104;11.702;2023-05-07T02:58:01;95426.28;;;8.46;100.00
62103;BME280;48077;48.104;11.702;2023-05-07T03:00:25;95422.66;;;8.41;100.00
62103;BME280;48077;48.104;11.702;2023-05-07T03:02:48;95436.84;;;8.53;100.00
62103;BME280;48077;48.104;11.702;2023-05-07T03:05:11;95426.69;;;8.50;100.00
62103;BME280;48077;48.104;11.702;2023-05-07T03:07:36;95421.19;;;8.45;100.00
62103;BME280;48077;48.104;11.702;2023-05-07T03:09:59;95428.56;;;8.43;100.00
62103;BME280;48077;48.104;11.702;2023-05-07T03:12:23;95419.78;;;8.42;100.00
62103;BME280;48077;48.104;11.702;2023-05-07T03:14:46;95422.84;;;8.46;100.00
62103;BME280;48077;48.104;11.702;2023-05-07T03:17:09;95416.47;;;8.47;100.00
62103;BME280;48077;48.104;11.702;2023-05-07T03:19:33;95433.59;;;8.51;100.00
62103;BME280;48077;48.104;11.702;2023-05-07T03:21:56;95431.63;;;8.46;100.00
62103;BME280;48077;48.104;11.702;2023-05-07T03:24:19;95422.66;;;8.41;100.00
62103;BME280;48077;48.104;11.702;2023-05-07T03:26:43;95423.47;;;8.41;100.00
62103;BME280;48077;48.104;11.702;2023-05-07T03:29:06;95405.13;;;8.33;100.00
62103;BME280;48077;48.104;11.702;2023-05-07T03:31:30;95427.91;;;8.47;100.00
62103;BME280;48077;48.104;11.702;2023-05-07T03:33:55;95428.56;;;8.43;100.00
62103;BME280;48077;48.104;11.702;2023-05-07T03:36:18;95417.53;;;8.39;100.00
62103;BME280;48077;48.104;11.702;2023-05-07T03:38:42;95404.31;;;8.32;100.00
62103;BME280;48077;48.104;11.702;2023-05-07T03:41:08;95425.91;;;8.43;100.00
62103;BME280;48077;48.104;11.702;2023-05-07T03:43:31;95404.00;;;8.22;100.00
62103;BME280;48077;48.104;11.702;2023-05-07T03:45:55;95409.25;;;8.29;100.00
62103;BME280;48077;48.104;11.702;2023-05-07T03:48:18;95407.47;;;8.23;100.00
62103;BME280;48077;48.104;11.702;2023-05-07T03:50:41;95399.81;;;8.15;100.00
62103;BME280;48077;48.104;11.702;2023-05-07T03:53:05;95418.34;;;8.21;100.00
62103;BME280;48077;48.104;11.702;2023-05-07T03:55:30;95420.41;;;8.19;100.00
62103;BME280;48077;48.104;11.702;2023-05-07T03:57:54;95412.25;;;8.14;100.00
62103;BME280;48077;48.104;11.702;2023-05-07T04:00:17;95432.22;;;8.23;100.00
62103;BME280;48077;48.104;11.702;2023-05-07T04:02:41;95402.16;;;8.04;100.00
62103;BME280;48077;48.104;11.702;2023-05-07T04:05:04;95424.53;;;8.15;100.00
62103;BME280;48077;48.104;11.702;2023-05-07T04:07:28;95429.84;;;8.15;100.00
62103;BME280;48077;48.104;11.702;2023-05-07T04:09:51;95425.19;;;8.10;100.00
62103;BME280;48077;48.104;11.702;2023-05-07T04:12:15;95440.03;;;8.18;100.00
62103;BME280;48077;48.104;11.702;2023-05-07T04:14:38;95420.16;;;8.02;100.00
62103;BME280;48077;48.104;11.702;2023-05-07T04:17:01;95408.56;;;7.97;100.00
62103;BME280;48077;48.104;11.702;2023-05-07T04:19:25;95416.06;;;8.00;100.00
62103;BME280;48077;48.104;11.702;2023-05-07T04:21:49;95443.72;;;8.17;100.00
62103;BME280;48077;48.104;11.702;2023-05-07T04:24:12;95423.63;;;8.03;100.00
62103;BME280;48077;48.104;11.702;2023-05-07T04:26:37;95436.84;;;8.09;100.00
62103;BME280;48077;48.104;11.702;2023-05-07T04:29:03;95422.84;;;7.96;100.00
62103;BME280;48077;48.104;11.702;2023-05-07T04:31:27;95435.66;;;8.05;100.00
62103;BME280;48077;48.104;11.702;2023-05-07T04:33:50;95463.28;;;8.23;100.00
62103;BME280;48077;48.104;11.702;2023-05-07T04:36:14;95452.88;;;8.21;100.00
62103;BME280;48077;48.104;11.702;2023-05-07T04:38:38;95451.09;;;8.15;100.00
62103;BME280;48077;48.104;11.702;2023-05-07T04:41:06;95463.44;;;8.28;100.00
62103;BME280;48077;48.104;11.702;2023-05-07T04:43:29;95459.31;;;8.32;100.00
62103;BME280;48077;48.104;11.702;2023-05-07T04:45:53;95469.06;;;8.38;100.00
62103;BME280;48077;48.104;11.702;2023-05-07T04:48:16;95448.69;;;8.32;100.00
62103;BME280;48077;48.104;11.702;2023-05-07T04:50:42;95454.56;;;8.41;100.00
62103;BME280;48077;48.104;11.702;2023-05-07T04:53:05;95459.81;;;8.47;100.00
62103;BME280;48077;48.104;11.702;2023-05-07T04:55:28;95447.00;;;8.38;100.00
62103;BME280;48077;48.104;11.702;2023-05-07T04:57:52;95463.06;;;8.49;100.00
62103;BME280;48077;48.104;11.702;2023-05-07T05:00:16;95468.28;;;8.56;100.00
62103;BME280;48077;48.104;11.702;2023-05-07T05:02:40;95438.00;;;8.39;100.00
62103;BME280;48077;48.104;11.702;2023-05-07T05:05:04;95466.22;;;8.58;100.00
62103;BME280;48077;48.104;11.702;2023-05-07T05:07:28;95457.75;;;8.49;100.00
62103;BME280;48077;48.104;11.702;2023-05-07T05:09:51;95477.69;;;8.59;100.00
62103;BME280;48077;48.104;11.702;2023-05-07T05:12:14;95476.22;;;8.63;100.00
62103;BME280;48077;48.104;11.702;2023-05-07T05:14:38;95481.91;;;8.66;100.00
62103;BME280;48077;48.104;11.702;2023-05-07T05:17:02;95439.63;;;8.40;100.00
62103;BME280;48077;48.104;11.702;2023-05-07T05:19:25;95450.53;;;8.57;100.00
62103;BME280;48077;48.104;11.702;2023-05-07T05:21:48;95459.81;;;8.66;100.00
62103;BME280;48077;48.104;11.702;2023-05-07T05:24:12;95421.78;;;8.47;100.00
62103;BME280;48077;48.104;11.702;2023-05-07T05:26:35;95468.84;;;8.83;100.00
62103;BME280;48077;48.104;11.702;2023-05-07T05:28:59;95467.94;;;8.89;100.00
62103;BME280;48077;48.104;11.702;2023-05-07T05:31:22;95454.88;;;8.88;100.00
62103;BME280;48077;48.104;11.702;2023-05-07T05:33:45;95465.25;;;9.08;100.00
62103;BME280;48077;48.104;11.702;2023-05-07T05:36:09;95452.22;;;9.06;100.00
62103;BME280;48077;48.104;11.702;2023-05-07T05:38:33;95481.56;;;9.30;100.00
62103;BME280;48077;48.104;11.702;2023-05-07T05:40:56;95433.63;;;9.18;100.00
62103;BME280;48077;48.104;11.702;2023-05-07T05:43:20;95457.00;;;9.46;100.00
62103;BME280;48077;48.104;11.702;2023-05-07T05:45:43;95458.66;;;9.59;100.00
62103;BME280;48077;48.104;11.702;2023-05-07T05:48:07;95477.00;;;9.79;100.00
62103;BME280;48077;48.104;11.702;2023-05-07T05:50:31;95466.84;;;9.88;100.00
62103;BME280;48077;48.104;11.702;2023-05-07T05:52:57;95460.72;;;9.99;100.00
62103;BME280;48077;48.104;11.702;2023-05-07T05:55:20;95466.44;;;10.15;100.00
62103;BME280;48077;48.104;11.702;2023-05-07T05:57:47;95463.53;;;10.28;100.00
62103;BME280;48077;48.104;11.702;2023-05-07T06:00:11;95460.06;;;10.39;100.00
62103;BME280;48077;48.104;11.702;2023-05-07T06:02:35;95462.50;;;10.52;100.00
62103;BME280;48077;48.104;11.702;2023-05-07T06:04:58;95460.66;;;10.65;100.00
62103;BME280;48077;48.104;11.702;2023-05-07T06:07:21;95464.00;;;10.84;100.00
62103;BME280;48077;48.104;11.702;2023-05-07T06:09:45;95447.28;;;10.88;100.00
62103;BME280;48077;48.104;11.702;2023-05-07T06:12:08;95456.16;;;11.06;100.00
62103;BME280;48077;48.104;11.702;2023-05-07T06:14:31;95460.97;;;11.21;100.00
62103;BME280;48077;48.104;11.702;2023-05-07T06:16:55;95462.66;;;11.39;100.00
62103;BME280;48077;48.104;11.702;2023-05-07T06:19:18;95463.94;;;11.48;100.00
62103;BME280;48077;48.104;11.702;2023-05-07T06:21:46;95464.66;;;11.60;100.00
62103;BME280;48077;48.104;11.702;2023-05-07T06:24:09;95447.78;;;11.71;100.00
62103;BME280;48077;48.104;11.702;2023-05-07T06:26:33;95463.69;;;11.95;100.00
62103;BME280;48077;48.104;11.702;2023-05-07T06:28:56;95456.09;;;12.04;100.00
62103;BME280;48077;48.104;11.702;2023-05-07T06:31:19;95451.41;;;12.11;100.00
62103;BME280;48077;48.104;11.702;2023-05-07T06:33:46;95462.09;;;12.28;100.00
62103;BME280;48077;48.104;11.702;2023-05-07T06:36:09;95453.28;;;12.27;100.00
62103;BME280;48077;48.104;11.702;2023-05-07T06:38:33;95463.94;;;12.44;100.00
62103;BME280;48077;48.104;11.702;2023-05-07T06:40:56;95458.47;;;12.56;100.00
62103;BME280;48077;48.104;11.702;2023-05-07T06:43:20;95468.34;;;12.72;100.00
62103;BME280;48077;48.104;11.702;2023-05-07T06:45:43;95456.84;;;12.72;100.00
62103;BME280;48077;48.104;11.702;2023-05-07T06:48:07;95462.66;;;12.86;100.00
62103;BME280;48077;48.104;11.702;2023-05-07T06:50:30;95472.56;;;13.07;100.00
62103;BME280;48077;48.104;11.702;2023-05-07T06:52:53;95469.50;;;13.21;100.00
62103;BME280;48077;48.104;11.702;2023-05-07T06:55:17;95464.84;;;13.33;100.00
62103;BME280;48077;48.104;11.702;2023-05-07T06:57:42;95448.63;;;13.40;100.00
62103;BME280;48077;48.104;11.702;2023-05-07T07:00:05;95454.88;;;13.50;100.00
62103;BME280;48077;48.104;11.702;2023-05-07T07:02:33;95464.94;;;13.65;100.00
62103;BME280;48077;48.104;11.702;2023-05-07T07:04:58;95475.53;;;13.77;100.00
62103;BME280;48077;48.104;11.702;2023-05-07T07:07:22;95465.91;;;13.81;100.00
62103;BME280;48077;48.104;11.702;2023-05-07T07:09:45;95466.56;;;13.93;100.00
62103;BME280;48077;48.104;11.702;2023-05-07T07:12:08;95477.22;;;14.15;100.00
62103;BME280;48077;48.104;11.702;2023-05-07T07:14:32;95453.84;;;14.11;100.00
62103;BME280;48077;48.104;11.702;2023-05-07T07:16:55;95445.28;;;14.14;100.00
62103;BME280;48077;48.104;11.702;2023-05-07T07:19:19;95451.53;;;14.25;100.00
62103;BME280;48077;48.104;11.702;2023-05-07T07:21:43;95447.31;;;14.34;100.00
62103;BME280;48077;48.104;11.702;2023-05-07T07:24:07;95454.97;;;14.52;99.54
62103;BME280;48077;48.104;11.702;2023-05-07T07:26:31;95480.91;;;14.79;98.32
62103;BME280;48077;48.104;11.702;2023-05-07T07:28:54;95479.63;;;14.87;99.31
62103;BME280;48077;48.104;11.702;2023-05-07T07:31:18;95485.03;;;14.92;97.85
62103;BME280;48077;48.104;11.702;2023-05-07T07:33:41;95480.47;;;14.97;97.17
62103;BME280;48077;48.104;11.702;2023-05-07T07:36:06;95481.88;;;15.05;96.42
62103;BME280;48077;48.104;11.702;2023-05-07T07:38:29;95477.84;;;15.03;95.81
62103;BME280;48077;48.104;11.702;2023-05-07T07:40:53;95457.94;;;15.04;95.59
62103;BME280;48077;48.104;11.702;2023-05-07T07:43:16;95451.81;;;15.13;94.76
62103;BME280;48077;48.104;11.702;2023-05-07T07:45:40;95475.09;;;15.50;89.26
62103;BME280;48077;48.104;11.702;2023-05-07T07:48:03;95475.09;;;15.55;88.51
62103;BME280;48077;48.104;11.702;2023-05-07T07:50:27;95482.09;;;15.62;89.41
62103;BME280;48077;48.104;11.702;2023-05-07T07:52:51;95471.69;;;15.81;84.69
62103;BME280;48077;48.104;11.702;2023-05-07T07:55:14;95482.19;;;15.87;85.59
62103;BME280;48077;48.104;11.702;2023-05-07T07:57:41;95479.50;;;15.97;84.62
62103;BME280;48077;48.104;11.702;2023-05-07T08:00:04;95488.97;;;16.26;80.14
62103;BME280;48077;48.104;11.702;2023-05-07T08:02:30;95474.41;;;16.16;80.65
62103;BME280;48077;48.104;11.702;2023-05-07T08:04:53;95477.94;;;16.17;82.39
62103;BME280;48077;48.104;11.702;2023-05-07T08:07:17;95481.69;;;16.26;81.33
62103;BME280;48077;48.104;11.702;2023-05-07T08:09:43;95488.69;;;16.63;75.93
62103;BME280;48077;48.104;11.702;2023-05-07T08:12:07;95488.13;;;16.71;75.34
62103;BME280;48077;48.104;11.702;2023-05-07T08:14:30;95485.72;;;16.59;77.29
62103;BME280;48077;48.104;11.702;2023-05-07T08:16:54;95482.50;;;16.57;79.86
62103;BME280;48077;48.104;11.702;2023-05-07T08:19:18;95475.75;;;16.55;79.12
62103;BME280;48077;48.104;11.702;2023-05-07T08:21:41;95488.13;;;16.66;80.17
62103;BME280;48077;48.104;11.702;2023-05-07T08:24:05;95483.28;;;16.73;79.16
62103;BME280;48077;48.104;11.702;2023-05-07T08:26:28;95474.09;;;16.95;76.57
62103;BME280;48077;48.104;11.702;2023-05-07T08:28:52;95462.28;;;16.86;76.81
62103;BME280;48077;48.104;11.702;2023-05-07T08:31:15;95497.25;;;17.11;75.67
62103;BME280;48077;48.104;11.702;2023-05-07T08:33:39;95479.75;;;17.09;75.36
62103;BME280;48077;48.104;11.702;2023-05-07T08:36:02;95474.81;;;17.26;74.78
62103;BME280;48077;48.104;11.702;2023-05-07T08:38:26;95475.88;;;17.35;72.12
62103;BME280;48077;48.104;11.702;2023-05-07T08:40:49;95483.59;;;17.57;71.71
62103;BME280;48077;48.104;11.702;2023-05-07T08:43:14;95473.94;;;17.46;72.59
62103;BME280;48077;48.104;11.702;2023-05-07T08:45:39;95492.47;;;17.63;72.28
62103;BME280;48077;48.104;11.702;2023-05-07T08:48:05;95465.03;;;17.46;71.40
62103;BME280;48077;48.104;11.702;2023-05-07T08:50:31;95489.72;;;17.68;71.17
62103;BME280;48077;48.104;11.702;2023-05-07T08:52:55;95489.94;;;17.82;70.77
62103;BME280;48077;48.104;11.702;2023-05-07T08:55:23;95488.34;;;17.76;69.56
62103;BME280;48077;48.104;11.702;2023-05-07T08:57:47;95484.00;;;17.90;69.49
62103;BME280;48077;48.104;11.702;2023-05-07T09:00:12;95470.81;;;17.84;69.67
62103;BME280;48077;48.104;11.702;2023-05-07T09:02:38;95458.06;;;17.94;67.88
62103;BME280;48077;48.104;11.702;2023-05-07T09:05:02;95505.53;;;18.35;66.89
62103;BME280;48077;48.104;11.702;2023-05-07T09:07:25;95454.56;;;18.28;66.03
62103;BME280;48077;48.104;11.702;2023-05-07T09:09:49;95499.97;;;18.55;66.87
62103;BME280;48077;48.104;11.702;2023-05-07T09:12:13;95463.63;;;18.43;64.97
62103;BME280;48077;48.104;11.702;2023-05-07T09:14:38;95497.44;;;18.69;60.19
62103;BME280;48077;48.104;11.702;2023-05-07T09:17:02;95443.34;;;18.45;60.76
62103;BME280;48077;48.104;11.702;2023-05-07T09:19:26;95484.41;;;18.82;63.68
62103;BME280;48077;48.104;11.702;2023-05-07T09:21:57;95458.50;;;18.75;63.94
62103;BME280;48077;48.104;11.702;2023-05-07T09:24:21;95436.63;;;18.72;62.65
62103;BME280;48077;48.104;11.702;2023-05-07T09:26:44;95446.22;;;18.88;63.61
62103;BME280;48077;48.104;11.702;2023-05-07T09:29:10;95434.56;;;18.93;61.34
62103;BME280;48077;48.104;11.702;2023-05-07T09:31:37;95361.69;;;18.58;62.15
62103;BME280;48077;48.104;11.702;2023-05-07T09:34:01;95381.91;;;18.90;60.40
62103;BME280;48077;48.104;11.702;2023-05-07T09:36:24;95474.00;;;19.42;61.07
62103;BME280;48077;48.104;11.702;2023-05-07T09:38:47;95445.97;;;19.33;58.22
62103;BME280;48077;48.104;11.702;2023-05-07T09:41:13;95416.84;;;19.06;60.04
62103;BME280;48077;48.104;11.702;2023-05-07T09:43:37;95471.22;;;19.47;61.81
62103;BME280;48077;48.104;11.702;2023-05-07T09:46:03;95467.66;;;19.52;60.74
62103;BME280;48077;48.104;11.702;2023-05-07T09:48:30;95482.78;;;19.77;59.88
62103;BME280;48077;48.104;11.702;2023-05-07T09:50:55;95487.47;;;19.90;60.06
62103;BME280;48077;48.104;11.702;2023-05-07T09:53:22;95460.38;;;19.52;60.40
62103;BME280;48077;48.104;11.702;2023-05-07T09:55:45;95462.34;;;19.66;59.95
62103;BME280;48077;48.104;11.702;2023-05-07T09:58:12;95465.50;;;19.73;60.35
62103;BME280;48077;48.104;11.702;2023-05-07T10:00:37;95473.94;;;19.71;62.02
62103;BME280;48077;48.104;11.702;2023-05-07T10:03:01;95434.91;;;19.53;61.80
62103;BME280;48077;48.104;11.702;2023-05-07T10:05:25;95470.69;;;19.69;59.84
62103;BME280;48077;48.104;11.702;2023-05-07T10:07:49;95472.31;;;19.70;60.78
62103;BME280;48077;48.104;11.702;2023-05-07T10:10:14;95484.06;;;19.60;61.82
62103;BME280;48077;48.104;11.702;2023-05-07T10:12:40;95475.31;;;19.45;63.48
62103;BME280;48077;48.104;11.702;2023-05-07T10:15:06;95476.50;;;19.57;63.41
62103;BME280;48077;48.104;11.702;2023-05-07T10:17:30;95460.16;;;19.68;61.61
62103;BME280;48077;48.104;11.702;2023-05-07T10:19:54;95467.09;;;19.98;59.26
62103;BME280;48077;48.104;11.702;2023-05-07T10:22:18;95463.03;;;20.14;58.36
62103;BME280;48077;48.104;11.702;2023-05-07T10:24:42;95469.63;;;20.08;58.01
62103;BME280;48077;48.104;11.702;2023-05-07T10:27:10;95464.28;;;19.84;59.91
62103;BME280;48077;48.104;11.702;2023-05-07T10:29:41;95480.25;;;20.05;59.00
62103;BME280;48077;48.104;11.702;2023-05-07T10:32:40;95475.03;;;20.27;55.83
62103;BME280;48077;48.104;11.702;2023-05-07T10:35:11;95484.91;;;20.37;57.43
62103;BME280;48077;48.104;11.702;2023-05-07T10:37:37;95463.06;;;20.47;55.30
62103;BME280;48077;48.104;11.702;2023-05-07T10:40:01;95469.50;;;20.51;55.89
62103;BME280;48077;48.104;11.702;2023-05-07T10:42:24;95467.75;;;20.41;54.48
62103;BME280;48077;48.104;11.702;2023-05-07T10:44:48;95464.91;;;20.33;55.58
62103;BME280;48077;48.104;11.702;2023-05-07T10:47:16;95475.09;;;20.41;54.19
62103;BME280;48077;48.104;11.702;2023-05-07T10:54:38;95469.69;;;20.22;53.89
62103;BME280;48077;48.104;11.702;2023-05-07T10:57:37;95484.50;;;20.43;54.50
62103;BME280;48077;48.104;11.702;2023-05-07T11:00:00;95458.44;;;20.48;54.44
62103;BME280;48077;48.104;11.702;2023-05-07T11:05:22;95466.19;;;20.73;53.62
62103;BME280;48077;48.104;11.702;2023-05-07T11:07:57;95477.97;;;20.96;54.00
62103;BME280;48077;48.104;11.702;2023-05-07T11:10:21;95469.75;;;21.15;50.88
62103;BME280;48077;48.104;11.702;2023-05-07T11:15:12;95443.63;;;20.92;52.94
62103;BME280;48077;48.104;11.702;2023-05-07T11:17:55;95484.72;;;21.13;55.07
62103;BME280;48077;48.104;11.702;2023-05-07T11:20:19;95479.09;;;21.09;52.89
62103;BME280;48077;48.104;11.702;2023-05-07T11:22:42;95473.47;;;21.06;54.68
62103;BME280;48077;48.104;11.702;2023-05-07T11:25:06;95480.78;;;21.05;55.34
62103;BME280;48077;48.104;11.702;2023-05-07T11:27:29;95478.47;;;21.12;55.50
62103;BME280;48077;48.104;11.702;2023-05-07T11:29:53;95464.84;;;21.17;53.27
62103;BME280;48077;48.104;11.702;2023-05-07T11:32:28;95445.34;;;21.01;53.75
62103;BME280;48077;48.104;11.702;2023-05-07T11:34:52;95445.34;;;21.15;54.74
62103;BME280;48077;48.104;11.702;2023-05-07T11:37:19;95446.84;;;21.21;54.09
62103;BME280;48077;48.104;11.702;2023-05-07T11:39:45;95447.28;;;21.56;52.76
62103;BME280;48077;48.104;11.702;2023-05-07T11:42:32;95446.81;;;21.77;53.63
62103;BME280;48077;48.104;11.702;2023-05-07T11:44:56;95449.94;;;21.84;52.42
62103;BME280;48077;48.104;11.702;2023-05-07T11:47:20;95451.88;;;22.06;51.15
62103;BME280;48077;48.104;11.702;2023-05-07T11:49:45;95454.50;;;21.97;52.39
62103;BME280;48077;48.104;11.702;2023-05-07T11:52:09;95447.56;;;22.05;53.46
62103;BME280;48077;48.104;11.702;2023-05-07T11:54:36;95456.16;;;22.21;51.90
62103;BME280;48077;48.104;11.702;2023-05-07T11:57:00;95465.88;;;22.36;50.09
62103;BME280;48077;48.104;11.702;2023-05-07T11:59:24;95448.31;;;22.19;50.77
62103;BME280;48077;48.104;11.702;2023-05-07T12:01:47;95464.16;;;22.03;51.04
62103;BME280;48077;48.104;11.702;2023-05-07T12:04:11;95461.28;;;21.86;52.71
62103;BME280;48077;48.104;11.702;2023-05-07T12:06:39;95448.34;;;21.69;52.18
62103;BME280;48077;48.104;11.702;2023-05-07T12:09:02;95456.16;;;21.85;52.26
62103;BME280;48077;48.104;11.702;2023-05-07T12:11:25;95463.91;;;22.14;50.80
62103;BME280;48077;48.104;11.702;2023-05-07T12:13:49;95466.31;;;22.29;52.00
62103;BME280;48077;48.104;11.702;2023-05-07T12:16:12;95446.13;;;22.44;52.58
62103;BME280;48077;48.104;11.702;2023-05-07T12:18:37;95441.00;;;22.65;50.41
62103;BME280;48077;48.104;11.702;2023-05-07T12:21:01;95446.06;;;22.89;53.09
62103;BME280;48077;48.104;11.702;2023-05-07T12:23:24;95447.66;;;23.13;50.26
62103;BME280;48077;48.104;11.702;2023-05-07T12:25:50;95446.22;;;23.15;51.08
62103;BME280;48077;48.104;11.702;2023-05-07T12:28:18;95449.09;;;23.59;50.90
62103;BME280;48077;48.104;11.702;2023-05-07T12:30:46;95449.72;;;23.64;49.07
62103;BME280;48077;48.104;11.702;2023-05-07T12:33:10;95419.94;;;23.59;47.98
62103;BME280;48077;48.104;11.702;2023-05-07T12:35:39;95419.31;;;23.71;46.63
62103;BME280;48077;48.104;11.702;2023-05-07T12:38:08;95427.91;;;23.47;46.46
62103;BME280;48077;48.104;11.702;2023-05-07T12:40:38;95432.94;;;23.22;46.56
62103;BME280;48077;48.104;11.702;2023-05-07T12:43:01;95420.28;;;22.78;48.96
62103;BME280;48077;48.104;11.702;2023-05-07T12:45:25;95405.28;;;22.58;49.46
62103;BME280;48077;48.104;11.702;2023-05-07T12:47:49;95413.69;;;22.48;50.23